Time;durP1;ratioP1;P1;durP2;ratioP2;P2;SDS_P1;SDS_P2;PMS_P1;PMS_P2;Temp;Humidity;BMP_temperature;BMP_pressure;BME280_temperature;BME280_humidity;BME280_pressure;Samples;Min_cycle;Max_cycle;Signal;HPM_P1;HPM_P2
2021/12/16 13:27:01;;;;;;;52.80;23.35;;;;;;;9.61;81.85;101388.88;4960815;28;20319;-61
2021/12/16 13:29:33;;;;;;;56.15;23.70;;;;;;;9.42;82.81;101392.06;4944707;28;20146;-61
2021/12/16 13:32:14;;;;;;;58.25;24.92;;;;;;;9.36;84.03;101388.28;4946321;28;20043;-63
2021/12/16 13:34:56;;;;;;;;;;;;;;;9.66;83.18;101394.50;4939036;28;20528;-61
2021/12/16 13:37:33;;;;;;;53.22;21.08;;;;;;;9.49;81.80;101387.66;4947461;28;19927;-63
2021/12/16 13:40:16;;;;;;;52.60;21.75;;;;;;;9.61;82.26;101391.53;4946203;28;20076;-63
2021/12/16 13:42:53;;;;;;;55.88;24.13;;;;;;;9.56;81.35;101385.91;4954557;28;20077;-62
2021/12/16 13:45:27;;;;;;;49.85;21.65;;;;;;;9.63;82.65;101389.47;4950624;28;20347;-63
2021/12/16 14:01:48;;;;;;;58.75;20.25;;;;;;;9.31;82.97;101396.00;4957513;28;20185;-61
2021/12/16 14:10:03;;;;;;;46.08;21.20;;;;;;;9.32;83.27;101399.50;4949565;28;20070;-62
2021/12/16 14:15:15;;;;;;;51.30;22.42;;;;;;;9.26;82.85;101393.88;4959594;28;20047;-62
2021/12/16 14:17:48;;;;;;;58.00;21.45;;;;;;;9.15;85.20;101407.66;4953721;28;20054;-62
2021/12/16 14:23:21;;;;;;;55.08;22.60;;;;;;;9.20;84.19;101401.78;4955707;28;20528;-62
2021/12/16 14:26:15;;;;;;;52.10;22.63;;;;;;;9.17;84.05;101396.81;4957849;28;20105;-62
2021/12/16 14:47:54;;;;;;;63.10;27.00;;;;;;;8.96;86.17;101405.47;4957168;28;20489;-62
2021/12/16 14:50:32;;;;;;;;;;;;;;;8.92;87.14;101420.22;4947914;28;20035;-62
2021/12/16 14:52:57;;;;;;;60.92;22.98;;;;;;;8.98;88.35;101412.31;4949905;28;19938;-61
2021/12/16 14:55:24;;;;;;;87.40;28.83;;;;;;;8.94;87.56;101426.25;4944653;28;20161;-61
2021/12/16 14:57:51;;;;;;;84.32;30.80;;;;;;;8.92;88.40;101422.91;4948597;28;20039;-63
2021/12/16 15:00:28;;;;;;;72.32;27.77;;;;;;;8.87;87.70;101425.28;4949905;28;20058;-63
2021/12/16 15:03:16;;;;;;;66.57;28.23;;;;;;;8.86;88.13;101429.78;4948101;28;20028;-63
2021/12/16 15:05:53;;;;;;;69.22;27.40;;;;;;;8.84;88.66;101432.66;4952328;28;20039;-62
2021/12/16 15:08:29;;;;;;;61.90;26.25;;;;;;;8.77;88.68;101426.34;4954156;28;20086;-62
2021/12/16 15:10:55;;;;;;;58.63;28.15;;;;;;;8.71;88.44;101427.06;4958867;28;20154;-63
2021/12/16 15:13:28;;;;;;;61.60;30.48;;;;;;;8.62;88.95;101433.44;4954156;28;20030;-63
2021/12/16 15:40:56;;;;;;;60.78;28.73;;;;;;;8.38;90.17;101419.16;4947301;28;20467;-62
2021/12/16 15:43:22;;;;;;;64.82;27.98;;;;;;;8.31;90.97;101425.38;4951174;28;20035;-61
2021/12/16 15:45:52;;;;;;;65.47;28.15;;;;;;;8.41;90.96;101423.34;4950232;28;20412;-62
2021/12/16 15:48:21;;;;;;;71.65;31.48;;;;;;;8.23;91.05;101428.91;4950779;28;20382;-62
2021/12/16 15:50:52;;;;;;;79.30;31.13;;;;;;;8.34;91.09;101436.56;4950478;28;20043;-62
2021/12/16 15:53:23;;;;;;;74.22;29.65;;;;;;;8.27;91.32;101434.75;4953038;28;20030;-63
2021/12/16 15:55:56;;;;;;;66.15;29.60;;;;;;;8.22;92.02;101432.59;4948589;28;20537;-63
2021/12/16 15:58:32;;;;;;;65.10;30.42;;;;;;;8.27;91.37;101432.91;4950822;28;20363;-63
2021/12/16 16:01:09;;;;;;;74.20;31.83;;;;;;;8.30;91.46;101435.22;4944114;28;20087;-62
2021/12/16 16:03:35;;;;;;;69.38;29.50;;;;;;;8.20;91.96;101435.44;4947201;28;20078;-63
2021/12/16 16:06:03;;;;;;;71.28;30.98;;;;;;;8.21;92.46;101436.25;4953026;28;20533;-62
2021/12/16 16:08:36;;;;;;;73.20;31.02;;;;;;;8.26;92.81;101431.22;4952021;28;20085;-62
2021/12/16 16:11:05;;;;;;;70.18;30.67;;;;;;;8.23;92.34;101428.91;4946731;28;20533;-62
2021/12/16 16:13:36;;;;;;;75.63;30.65;;;;;;;8.24;92.92;101424.41;4947988;28;20050;-62
2021/12/16 16:16:03;;;;;;;67.28;31.25;;;;;;;8.18;92.92;101425.94;4959030;28;20043;-62
2021/12/16 16:20:55;;;;;;;80.10;30.55;;;;;;;8.11;93.71;101420.47;4943975;28;20418;-62
2021/12/16 16:23:20;;;;;;;62.50;29.02;;;;;;;8.13;93.85;101422.94;4949155;28;20481;-62
2021/12/16 16:25:46;;;;;;;74.18;30.63;;;;;;;8.13;93.81;101433.63;4950521;28;20132;-62
2021/12/16 16:28:12;;;;;;;69.05;28.58;;;;;;;8.15;94.91;101440.47;4947559;28;20023;-62
2021/12/16 16:30:38;;;;;;;68.82;28.42;;;;;;;8.23;94.88;101442.28;4953731;28;20074;-62
2021/12/16 16:33:30;;;;;;;71.55;28.45;;;;;;;8.23;94.81;101439.59;4951606;28;20460;-62
2021/12/16 16:36:01;;;;;;;75.70;31.42;;;;;;;8.27;93.64;101443.59;4940621;28;20054;-62
2021/12/16 16:38:32;;;;;;;69.50;29.23;;;;;;;8.26;93.54;101439.25;4949996;28;20513;-62
2021/12/16 16:40:58;;;;;;;76.60;31.60;;;;;;;8.21;93.24;101441.59;4944239;28;20051;-62
2021/12/16 16:43:32;;;;;;;72.18;30.98;;;;;;;8.20;94.62;101450.63;4950151;28;20109;-63
2021/12/16 16:46:08;;;;;;;79.38;30.42;;;;;;;8.18;93.52;101436.63;4951876;28;20045;-62
2021/12/16 16:51:14;;;;;;;70.57;31.67;;;;;;;8.20;93.63;101447.97;4965839;28;20153;-62
2021/12/16 16:53:55;;;;;;;77.70;33.22;;;;;;;8.12;93.83;101445.34;4940268;28;20027;-62
2021/12/16 16:56:40;;;;;;;78.72;32.03;;;;;;;8.14;94.06;101446.00;4948244;28;20047;-62
2021/12/16 16:59:06;;;;;;;70.50;30.83;;;;;;;8.11;93.72;101446.31;4954166;28;20026;-63
2021/12/16 17:01:32;;;;;;;77.47;32.63;;;;;;;8.12;93.65;101450.69;4927047;28;20035;-62
2021/12/16 17:04:00;;;;;;;75.78;31.75;;;;;;;8.12;94.22;101450.69;4944935;28;20105;-62
2021/12/16 17:06:27;;;;;;;65.05;29.27;;;;;;;8.18;93.93;101441.97;4945101;28;20776;-62
2021/12/16 17:08:52;;;;;;;77.35;32.25;;;;;;;8.14;93.92;101435.31;4948892;28;20027;-62
2021/12/16 17:11:21;;;;;;;75.05;32.95;;;;;;;8.18;93.55;101441.97;4928286;28;20038;-62
2021/12/16 17:13:59;;;;;;;74.45;31.85;;;;;;;8.06;93.95;101438.00;4950522;28;20118;-62
2021/12/16 17:19:15;;;;;;;81.78;32.80;;;;;;;8.07;94.42;101453.03;4948730;28;20058;-63
2021/12/16 17:21:41;;;;;;;80.95;32.55;;;;;;;8.04;94.44;101450.69;4957983;28;20035;-62
2021/12/16 17:24:13;;;;;;;79.18;33.30;;;;;;;7.97;94.80;101446.03;4963619;28;20080;-62
2021/12/16 17:26:51;;;;;;;75.53;31.58;;;;;;;7.91;95.41;101441.41;4958890;28;20039;-62
2021/12/16 17:29:25;;;;;;;73.88;31.90;;;;;;;7.93;95.68;101443.88;4953243;28;20441;-62
2021/12/16 17:31:59;;;;;;;83.70;32.65;;;;;;;7.92;95.14;101443.06;4948402;28;20034;-63
2021/12/16 17:34:32;;;;;;;82.40;33.45;;;;;;;7.90;95.63;101445.06;4950846;28;20474;-61
2021/12/16 17:37:09;;;;;;;78.60;31.58;;;;;;;7.95;95.35;101445.38;4946497;28;20271;-63
2021/12/16 17:39:41;;;;;;;81.32;31.60;;;;;;;7.99;95.02;101440.53;4949945;28;20557;-62
2021/12/16 17:42:14;;;;;;;84.50;33.38;;;;;;;7.89;95.94;101454.06;4953636;28;20074;-61
2021/12/16 17:44:41;;;;;;;92.45;34.45;;;;;;;7.84;95.98;101460.91;4957180;28;20126;-64
2021/12/16 17:47:13;;;;;;;89.80;33.90;;;;;;;7.81;96.46;101451.41;4955926;28;20134;-62
2021/12/16 17:49:39;;;;;;;96.47;35.30;;;;;;;7.77;96.38;101456.25;4958211;28;20031;-62
2021/12/16 17:52:06;;;;;;;85.93;35.38;;;;;;;7.80;96.84;101456.94;4959791;28;20043;-62
2021/12/16 17:54:41;;;;;;;89.22;33.28;;;;;;;7.84;96.84;101460.91;4955486;28;20165;-62
2021/12/16 17:57:07;;;;;;;78.55;32.53;;;;;;;7.89;96.24;101464.75;4951476;28;20043;-62
2021/12/16 17:59:37;;;;;;;89.85;34.88;;;;;;;7.91;96.30;101465.44;4959876;28;20153;-62
2021/12/16 18:02:03;;;;;;;84.05;35.17;;;;;;;7.91;96.02;101472.59;4955113;28;20042;-62
2021/12/16 18:04:29;;;;;;;93.70;35.55;;;;;;;7.83;96.35;101477.94;4957934;28;20047;-62
2021/12/16 18:06:58;;;;;;;93.25;37.72;;;;;;;7.82;96.67;101473.63;4957089;28;20622;-62
2021/12/16 18:09:35;;;;;;;94.70;36.35;;;;;;;7.87;96.54;101476.63;4956168;28;20050;-62
2021/12/16 18:12:25;;;;;;;90.13;36.00;;;;;;;7.93;95.95;101482.09;4957952;28;20664;-62
2021/12/16 18:14:55;;;;;;;85.95;35.67;;;;;;;7.94;95.86;101481.09;4954800;28;20429;-62
2021/12/16 18:17:27;;;;;;;83.60;32.60;;;;;;;7.96;95.73;101484.44;4956719;28;20054;-62
2021/12/16 18:20:14;;;;;;;93.13;35.47;;;;;;;7.98;95.66;101481.59;4955837;28;20477;-61
2021/12/16 18:22:42;;;;;;;96.53;35.85;;;;;;;7.86;96.01;101491.81;4954575;28;20047;-63
2021/12/16 18:25:15;;;;;;;92.75;35.45;;;;;;;7.87;96.01;101482.78;4947102;28;20260;-61
2021/12/16 18:28:34;;;;;;;100.07;33.63;;;;;;;7.95;95.71;101485.44;4955448;28;20030;-61
2021/12/16 18:31:12;;;;;;;93.05;34.75;;;;;;;7.89;96.11;101486.13;4937021;28;20415;-63
2021/12/16 18:33:50;;;;;;;86.07;32.22;;;;;;;7.86;96.24;101483.78;4956690;28;20023;-61
2021/12/16 18:36:31;;;;;;;89.80;35.08;;;;;;;7.92;95.75;101496.44;4953296;28;20040;-61
2021/12/16 18:39:24;;;;;;;76.78;33.10;;;;;;;7.96;96.21;101492.44;4951777;28;20121;-61
2021/12/16 18:42:04;;;;;;;89.22;34.97;;;;;;;7.89;96.22;101502.13;4958867;28;20046;-63
2021/12/16 18:44:59;;;;;;;86.85;34.35;;;;;;;7.87;96.84;101506.81;4955755;28;20051;-63
2021/12/16 18:56:27;;;;;;;93.25;36.80;;;;;;;7.70;97.88;101511.31;4951308;28;20054;-61
2021/12/16 18:58:53;;;;;;;99.70;38.17;;;;;;;7.76;97.72;101516.00;4953676;28;20134;-62
2021/12/16 19:01:28;;;;;;;85.97;34.85;;;;;;;7.83;97.02;101512.66;4953028;28;20035;-63
2021/12/16 19:03:54;;;;;;;87.40;35.25;;;;;;;7.87;97.41;101508.66;4948890;28;20117;-63
2021/12/16 19:06:24;;;;;;;89.50;37.00;;;;;;;7.81;97.52;101506.63;4957258;28;20205;-63
2021/12/16 19:08:50;;;;;;;85.78;33.95;;;;;;;7.88;97.38;101510.31;4949922;28;20035;-63
2021/12/16 19:11:17;;;;;;;82.40;34.75;;;;;;;7.87;97.05;101514.00;4953951;28;20397;-63
2021/12/16 19:13:45;;;;;;;85.68;35.83;;;;;;;7.76;97.36;101516.00;4949044;28;20405;-63
2021/12/16 19:16:11;;;;;;;93.90;38.60;;;;;;;7.68;98.31;101517.84;4944476;28;20063;-63
2021/12/16 19:18:37;;;;;;;100.00;38.05;;;;;;;7.66;98.51;101509.16;4944065;28;20054;-63
2021/12/16 19:21:03;;;;;;;97.30;39.45;;;;;;;7.66;98.65;101512.69;4943034;28;20457;-63
2021/12/16 19:23:30;;;;;;;91.50;36.65;;;;;;;7.63;98.62;101510.31;4946930;28;20035;-63
2021/12/16 19:25:57;;;;;;;95.68;37.92;;;;;;;7.63;98.93;101517.50;4942278;28;20570;-63
2021/12/16 19:28:24;;;;;;;102.30;39.97;;;;;;;7.58;98.89;101518.00;4949862;28;20130;-63
2021/12/16 19:30:50;;;;;;;97.07;39.00;;;;;;;7.57;99.04;101527.84;4956356;28;20129;-63
2021/12/16 19:33:16;;;;;;;98.95;39.88;;;;;;;7.60;99.08;101515.19;4955227;28;20055;-63
2021/12/16 19:35:42;;;;;;;94.28;35.95;;;;;;;7.67;99.50;101526.84;4945054;28;20097;-63
2021/12/16 19:38:11;;;;;;;102.80;43.78;;;;;;;7.67;98.84;101524.19;4953123;28;20031;-63
2021/12/16 19:40:37;;;;;;;97.80;41.38;;;;;;;7.67;99.77;101526.84;4951534;28;20043;-63
2021/12/16 19:43:06;;;;;;;91.95;39.47;;;;;;;7.68;99.21;101536.53;4957108;28;20038;-63
2021/12/16 19:45:40;;;;;;;107.20;42.75;;;;;;;7.65;98.79;101534.19;4957361;28;20098;-63
2021/12/16 19:48:06;;;;;;;97.88;39.33;;;;;;;7.66;99.55;101534.03;4953290;28;20307;-63
2021/12/16 19:50:32;;;;;;;109.43;40.22;;;;;;;7.71;99.19;101533.50;4955911;28;20499;-63
2021/12/16 19:52:58;;;;;;;98.80;40.55;;;;;;;7.64;99.49;101537.84;4952202;28;20106;-63
2021/12/16 19:55:25;;;;;;;95.18;38.75;;;;;;;7.65;99.40;101536.84;4954279;28;20043;-63
2021/12/16 19:57:53;;;;;;;97.47;35.92;;;;;;;7.60;99.63;101549.88;4954957;28;20065;-63
2021/12/16 20:00:29;;;;;;;105.53;41.35;;;;;;;7.49;100.00;101546.53;4950525;28;20062;-63
2021/12/16 20:02:57;;;;;;;103.45;39.55;;;;;;;7.45;100.00;101553.19;4953473;28;20681;-63
2021/12/16 20:05:25;;;;;;;119.60;44.75;;;;;;;7.41;100.00;101557.16;4952849;28;20043;-63
2021/12/16 20:07:51;;;;;;;112.28;40.08;;;;;;;7.36;100.00;101559.50;4955853;28;20041;-63
2021/12/16 20:10:26;;;;;;;109.45;41.42;;;;;;;7.34;100.00;101564.19;4953123;28;20732;-63
2021/12/16 20:12:53;;;;;;;109.85;42.72;;;;;;;7.37;100.00;101574.53;4956187;28;20445;-63
2021/12/16 20:15:47;;;;;;;145.13;52.55;;;;;;;7.27;100.00;101566.66;4953768;28;20505;-63
2021/12/16 20:18:14;;;;;;;129.77;46.30;;;;;;;7.28;100.00;101572.84;4953418;28;20083;-63
2021/12/16 20:20:49;;;;;;;133.40;45.08;;;;;;;7.21;100.00;101572.63;4956466;28;20054;-62
2021/12/16 20:23:15;;;;;;;135.35;47.75;;;;;;;7.17;100.00;101581.16;4955355;28;20505;-62
2021/12/16 20:25:49;;;;;;;121.43;43.42;;;;;;;7.12;100.00;101571.81;4951271;28;20071;-62
2021/12/16 20:28:26;;;;;;;122.22;42.33;;;;;;;7.08;100.00;101567.78;4948284;28;20461;-62
2021/12/16 20:30:58;;;;;;;140.15;44.15;;;;;;;7.08;100.00;101567.78;4949425;28;20066;-62
2021/12/16 20:33:48;;;;;;;142.60;46.47;;;;;;;7.14;100.00;101558.31;4949100;28;20079;-62
2021/12/16 20:36:22;;;;;;;134.57;45.42;;;;;;;7.07;100.00;101565.28;4949118;28;20068;-62
2021/12/16 20:38:51;;;;;;;138.77;47.28;;;;;;;7.00;100.00;101565.09;4945875;28;20035;-62
2021/12/16 20:41:20;;;;;;;126.18;43.33;;;;;;;6.99;100.00;101563.44;4947916;28;20118;-61
2021/12/16 20:43:53;;;;;;;142.77;46.03;;;;;;;6.99;100.00;101570.56;4950226;28;20145;-62
2021/12/16 20:46:21;;;;;;;137.88;46.60;;;;;;;6.98;100.00;101571.59;4950125;28;20050;-63
2021/12/16 20:48:59;;;;;;;141.75;49.47;;;;;;;6.99;100.00;101570.56;4948341;28;20527;-62
2021/12/16 20:51:34;;;;;;;125.50;43.35;;;;;;;7.05;100.00;101567.28;4954800;28;20417;-63
2021/12/16 20:54:06;;;;;;;134.82;44.25;;;;;;;7.09;100.00;101568.63;4950838;28;20027;-62
2021/12/16 20:56:37;;;;;;;141.65;48.05;;;;;;;7.05;100.00;101576.09;4952633;28;20565;-63
2021/12/16 20:59:09;;;;;;;143.75;50.75;;;;;;;7.01;100.00;101574.75;4956775;28;20085;-63
2021/12/16 21:01:39;;;;;;;162.30;48.17;;;;;;;6.97;100.00;101570.75;4955143;28;20059;-64
2021/12/16 21:04:05;;;;;;;146.95;48.25;;;;;;;6.95;100.00;101575.41;4955211;28;20034;-62
2021/12/16 21:06:40;;;;;;;137.18;44.58;;;;;;;7.04;100.00;101569.13;4956901;28;20035;-62
2021/12/16 21:09:07;;;;;;;141.98;46.50;;;;;;;7.05;100.00;101569.94;4955190;28;20110;-63
2021/12/16 21:11:33;;;;;;;151.77;49.38;;;;;;;7.03;100.00;101562.09;4963531;28;20201;-62
2021/12/16 21:13:58;;;;;;;133.48;47.65;;;;;;;7.01;100.00;101564.09;4954990;28;20639;-61
2021/12/16 21:16:24;;;;;;;129.27;43.95;;;;;;;7.02;100.00;101573.78;4953025;28;20133;-63
2021/12/16 21:18:49;;;;;;;151.32;48.10;;;;;;;7.07;100.00;101571.44;4955676;28;20022;-62
2021/12/16 21:21:15;;;;;;;137.60;44.45;;;;;;;7.03;100.00;101570.09;4957383;28;20125;-63
2021/12/16 21:23:41;;;;;;;147.77;46.15;;;;;;;7.03;100.00;101564.75;4954558;28;20201;-61
2021/12/16 21:26:06;;;;;;;128.27;42.13;;;;;;;7.02;100.00;101559.63;4931577;29;20050;-63
2021/12/16 21:28:34;;;;;;;127.00;41.83;;;;;;;6.93;100.00;101557.91;4950144;28;20027;-62
2021/12/16 21:31:02;;;;;;;126.20;42.42;;;;;;;6.92;100.00;101559.75;4953134;28;20497;-62
2021/12/16 21:33:35;;;;;;;129.38;43.67;;;;;;;6.90;100.00;101556.41;4958887;28;20535;-64
2021/12/16 21:36:03;;;;;;;117.38;38.70;;;;;;;6.93;100.00;101564.06;4953890;28;20055;-63
2021/12/16 21:38:31;;;;;;;114.22;38.92;;;;;;;6.92;100.00;101554.41;4966605;28;20291;-63
2021/12/16 21:40:59;;;;;;;106.88;36.85;;;;;;;6.88;100.00;101555.72;4962333;28;20042;-63
2021/12/16 21:43:27;;;;;;;111.15;37.45;;;;;;;6.91;100.00;101560.72;4955008;28;20027;-63
2021/12/16 21:45:53;;;;;;;112.03;37.67;;;;;;;6.90;100.00;101565.22;4956219;28;20054;-63
2021/12/16 21:48:19;;;;;;;110.65;40.08;;;;;;;6.86;100.00;101553.22;4958220;28;20019;-62
2021/12/16 21:50:45;;;;;;;113.22;37.92;;;;;;;6.85;100.00;101551.53;4952319;28;20046;-62
2021/12/16 21:53:13;;;;;;;104.88;39.63;;;;;;;6.86;100.00;101555.03;4956052;28;20019;-62
2021/12/16 21:55:38;;;;;;;116.80;38.17;;;;;;;6.82;100.00;101553.72;4952054;28;20050;-62
2021/12/16 21:58:07;;;;;;;111.82;37.65;;;;;;;6.80;100.00;101555.69;4953837;28;20520;-62
2021/12/16 22:00:32;;;;;;;128.45;39.80;;;;;;;6.79;100.00;101556.69;4953820;28;20055;-63
2021/12/16 22:02:58;;;;;;;123.65;38.92;;;;;;;6.84;100.00;101563.22;4948410;28;20626;-62
2021/12/16 22:05:24;;;;;;;127.55;39.97;;;;;;;6.87;100.00;101556.72;4948450;28;20299;-62
2021/12/16 22:07:50;;;;;;;114.50;36.20;;;;;;;6.85;100.00;101556.03;4949144;28;20129;-62
2021/12/16 22:10:16;;;;;;;111.55;37.28;;;;;;;6.81;100.00;101562.69;4943857;28;20102;-62
2021/12/16 22:12:42;;;;;;;106.53;36.75;;;;;;;6.80;100.00;101558.38;4958332;28;20489;-62
2021/12/16 22:15:09;;;;;;;119.65;37.72;;;;;;;6.75;100.00;101555.34;4944459;28;20089;-62
2021/12/16 22:17:35;;;;;;;96.18;30.83;;;;;;;6.76;100.00;101567.66;4947862;28;20575;-61
2021/12/16 22:20:00;;;;;;;104.68;35.95;;;;;;;6.75;100.00;101566.00;4948971;28;20033;-61
2021/12/16 22:22:26;;;;;;;112.82;33.83;;;;;;;6.72;100.00;101575.16;4949594;28;20149;-63
2021/12/16 22:24:52;;;;;;;109.10;33.17;;;;;;;6.68;100.00;101574.63;4947882;28;20107;-63
2021/12/16 22:27:17;;;;;;;104.22;33.30;;;;;;;6.69;100.00;101576.31;4947519;28;20138;-63
2021/12/16 22:29:43;;;;;;;100.90;33.03;;;;;;;6.66;100.00;101579.31;4953262;28;20034;-62
2021/12/16 22:32:09;;;;;;;97.57;32.80;;;;;;;6.61;100.00;101570.94;4954656;28;20099;-62
2021/12/16 22:34:34;;;;;;;95.35;32.60;;;;;;;6.63;100.00;101573.44;4957205;28;20070;-62
2021/12/16 22:37:03;;;;;;;98.40;33.13;;;;;;;6.65;100.00;101582.13;4951611;28;20074;-63
2021/12/16 22:39:30;;;;;;;73.20;25.13;;;;;;;6.60;100.00;101585.25;4949390;28;20038;-62
2021/12/16 22:41:56;;;;;;;90.70;30.83;;;;;;;6.58;100.00;101579.25;4955502;28;20493;-62
2021/12/16 22:44:22;;;;;;;86.72;28.35;;;;;;;6.61;100.00;101578.09;4956922;28;20545;-62
2021/12/16 22:46:47;;;;;;;82.00;28.98;;;;;;;6.57;100.00;101585.56;4950972;28;20162;-63
2021/12/16 22:49:13;;;;;;;78.63;27.15;;;;;;;6.63;100.00;101584.94;4955194;28;20453;-62
2021/12/16 22:51:40;;;;;;;70.32;25.23;;;;;;;6.59;100.00;101588.94;4960026;28;20046;-62
2021/12/16 22:54:06;;;;;;;77.78;29.08;;;;;;;6.58;100.00;101589.06;4950012;28;20138;-62
2021/12/16 22:56:32;;;;;;;82.30;30.13;;;;;;;6.57;100.00;101584.75;4951645;28;20046;-62
2021/12/16 22:58:58;;;;;;;78.03;27.75;;;;;;;6.57;100.00;101590.06;4953768;28;20134;-63
2021/12/16 23:01:23;;;;;;;80.53;28.77;;;;;;;6.56;100.00;101588.38;4948555;28;20640;-62
2021/12/16 23:03:53;;;;;;;84.32;29.63;;;;;;;6.57;100.00;101596.25;4948157;28;20094;-62
2021/12/16 23:06:18;;;;;;;87.18;25.90;;;;;;;6.52;100.00;101592.38;4953418;28;20059;-62
2021/12/16 23:08:46;;;;;;;82.00;28.95;;;;;;;6.54;100.00;101601.88;4947697;28;20038;-63
2021/12/16 23:11:12;;;;;;;70.20;24.75;;;;;;;6.54;100.00;101591.22;4947720;28;20486;-62
2021/12/16 23:13:39;;;;;;;67.60;25.90;;;;;;;6.52;100.00;101601.22;4959460;28;20077;-62
2021/12/16 23:23:58;;;;;;;73.10;26.60;;;;;;;6.41;100.00;101590.81;4948340;28;20041;-62
2021/12/16 23:26:24;;;;;;;70.85;24.88;;;;;;;6.42;100.00;101587.16;4945084;28;20050;-62
2021/12/16 23:28:50;;;;;;;78.03;27.58;;;;;;;6.37;100.00;101584.97;4954175;28;20027;-63
2021/12/16 23:31:16;;;;;;;79.53;29.13;;;;;;;6.40;100.00;101594.47;4956997;28;20130;-62
2021/12/16 23:33:41;;;;;;;82.03;32.30;;;;;;;6.38;100.00;101588.47;4956214;28;20117;-62
2021/12/16 23:36:07;;;;;;;92.40;30.58;;;;;;;6.40;100.00;101591.81;4948500;28;20043;-63
2021/12/16 23:38:54;;;;;;;82.32;28.23;;;;;;;6.33;100.00;101591.59;4945571;28;20062;-63
2021/12/16 23:46:54;;;;;;;69.63;27.13;;;;;;;6.31;100.00;101582.91;4949984;28;20058;-63
2021/12/16 23:54:48;;;;;;;76.38;26.20;;;;;;;6.26;100.00;101578.09;4945650;28;20089;-63
2021/12/16 23:57:14;;;;;;;63.90;22.08;;;;;;;6.20;100.00;101578.69;4957891;28;20141;-62
2021/12/16 23:59:40;;;;;;;74.13;26.25;;;;;;;6.20;100.00;101584.03;4949324;28;20045;-63
